createdAt,value
2022-10-15T00:00:19.410Z,17.50
2022-10-15T00:03:50.185Z,17.50
2022-10-15T00:08:32.271Z,17.40
2022-10-15T00:11:09.885Z,17.40
2022-10-15T00:14:20.370Z,17.40
2022-10-15T00:17:26.808Z,17.40
2022-10-15T00:19:59.229Z,17.50
2022-10-15T00:22:29.089Z,17.40
2022-10-15T00:24:58.554Z,17.40
2022-10-15T00:27:28.432Z,17.40
2022-10-15T00:30:00.479Z,17.40
2022-10-15T00:32:30.555Z,17.40
2022-10-15T00:35:01.869Z,17.40
2022-10-15T00:37:32.639Z,17.40
2022-10-15T00:42:35.580Z,17.40
2022-10-15T00:45:06.371Z,17.30
2022-10-15T00:47:41.273Z,17.40
2022-10-15T00:50:18.800Z,17.40
2022-10-15T00:52:59.589Z,17.30
2022-10-15T00:55:32.702Z,17.30
2022-10-15T00:58:08.332Z,17.30
2022-10-15T05:36:29.011Z,16.60
2022-10-15T05:48:33.768Z,16.60
2022-10-15T06:55:50.026Z,16.60
2022-10-15T06:59:45.967Z,16.60
2022-10-15T07:08:00.718Z,16.70
2022-10-15T07:11:28.862Z,16.70
2022-10-15T07:18:28.847Z,16.80
2022-10-15T07:21:47.464Z,16.80
2022-10-15T07:25:42.663Z,16.80
2022-10-15T07:36:11.583Z,16.80
2022-10-15T07:43:39.680Z,16.90
2022-10-15T07:55:28.515Z,16.90
2022-10-15T08:02:29.184Z,17.00
2022-10-15T08:18:57.442Z,17.10
2022-10-15T08:29:55.761Z,17.10
2022-10-15T08:32:42.922Z,17.20
2022-10-15T08:35:58.925Z,17.20
2022-10-15T08:38:58.797Z,17.20
2022-10-15T08:42:01.317Z,17.20
2022-10-15T08:44:55.168Z,17.30
2022-10-15T08:47:59.578Z,17.30
2022-10-15T08:50:50.441Z,17.30
2022-10-15T08:53:54.202Z,17.40
2022-10-15T08:56:48.917Z,17.40
2022-10-15T08:59:42.789Z,17.50
2022-10-15T09:02:24.563Z,17.50
2022-10-15T09:05:17.714Z,17.60
2022-10-15T09:07:59.072Z,17.60
2022-10-15T09:10:49.854Z,17.70
2022-10-15T09:13:50.053Z,17.70
2022-10-15T09:16:58.047Z,17.80
2022-10-15T09:20:08.559Z,17.80
2022-10-15T09:23:39.653Z,17.80
2022-10-15T09:30:43.199Z,18.00
2022-10-15T09:33:42.171Z,18.00
2022-10-15T09:41:13.036Z,18.20
2022-10-15T09:44:17.423Z,18.30
2022-10-15T09:47:31.343Z,18.30
2022-10-15T09:50:50.265Z,18.30
2022-10-15T09:53:58.092Z,18.40
2022-10-15T09:57:21.012Z,18.40
2022-10-15T10:00:38.551Z,18.40
2022-10-15T10:03:47.496Z,18.50
2022-10-15T10:06:53.674Z,18.50
2022-10-15T10:09:35.375Z,18.50
2022-10-15T10:12:25.437Z,18.50
2022-10-15T10:15:07.874Z,18.50
2022-10-15T10:18:02.636Z,18.50
2022-10-15T10:21:14.530Z,18.50
2022-10-15T10:24:25.868Z,18.50
2022-10-15T10:27:24.161Z,18.50
2022-10-15T10:30:07.972Z,18.50
2022-10-15T10:32:42.878Z,18.50
2022-10-15T10:35:26.098Z,18.50
2022-10-15T10:38:23.615Z,18.50
2022-10-15T10:40:59.147Z,18.50
2022-10-15T10:43:36.789Z,18.50
2022-10-15T10:46:32.980Z,18.50
2022-10-15T10:49:51.709Z,18.60
2022-10-15T10:52:48.890Z,18.60
2022-10-15T10:55:44.198Z,18.60
2022-10-15T10:58:51.558Z,18.60
2022-10-15T11:01:53.964Z,18.60
2022-10-15T11:05:37.438Z,18.60
2022-10-15T11:08:40.409Z,18.70
2022-10-15T11:11:35.989Z,18.70
2022-10-15T11:14:38.606Z,18.70
2022-10-15T11:17:33.916Z,18.70
2022-10-15T11:20:38.989Z,18.70
2022-10-15T11:24:10.048Z,18.70
2022-10-15T11:27:40.905Z,18.70
2022-10-15T11:30:31.845Z,18.80
2022-10-15T11:33:26.231Z,18.80
2022-10-15T11:36:24.231Z,18.80
2022-10-15T11:39:15.033Z,18.80
2022-10-15T11:42:15.054Z,18.80
2022-10-15T11:45:31.292Z,18.90
2022-10-15T11:48:34.069Z,18.90
2022-10-15T11:51:24.776Z,19.00
2022-10-15T11:54:29.280Z,19.00
2022-10-15T11:57:09.938Z,19.10
2022-10-15T12:00:00.920Z,19.20
2022-10-15T12:02:43.255Z,19.20
2022-10-15T12:05:36.221Z,19.30
2022-10-15T12:08:11.625Z,19.30
2022-10-15T12:11:14.070Z,19.40
2022-10-15T12:14:06.103Z,19.40
2022-10-15T12:20:28.685Z,19.50
2022-10-15T12:23:01.193Z,19.50
2022-10-15T12:25:46.909Z,19.60
2022-10-15T12:28:20.358Z,19.60
2022-10-15T12:31:01.895Z,19.60
2022-10-15T12:33:38.082Z,19.60
2022-10-15T12:36:22.755Z,19.60
2022-10-15T12:39:00.706Z,19.60
2022-10-15T12:41:40.006Z,19.60
2022-10-15T12:44:16.872Z,19.60
2022-10-15T12:46:45.494Z,19.60
2022-10-15T12:49:48.786Z,19.50
2022-10-15T12:53:05.526Z,19.60
2022-10-15T12:55:37.350Z,19.60
2022-10-15T12:58:35.339Z,19.60
2022-10-15T13:01:08.706Z,19.60
2022-10-15T13:03:40.363Z,19.60
2022-10-15T13:06:27.538Z,19.70
2022-10-15T13:09:25.260Z,19.70
2022-10-15T13:11:55.711Z,19.70
2022-10-15T13:14:36.107Z,19.70
2022-10-15T13:17:08.299Z,19.80
2022-10-15T13:19:40.819Z,19.80
2022-10-15T13:22:23.831Z,19.80
2022-10-15T13:24:55.706Z,19.80
2022-10-15T13:27:26.840Z,19.80
2022-10-15T13:29:58.057Z,19.80
2022-10-15T13:32:29.227Z,19.90
2022-10-15T13:34:58.414Z,19.90
2022-10-15T13:37:33.010Z,19.90
2022-10-15T13:40:07.609Z,20.00
2022-10-15T13:42:37.040Z,20.00
2022-10-15T13:45:17.829Z,20.10
2022-10-15T13:47:50.725Z,20.10
2022-10-15T13:50:23.786Z,20.10
2022-10-15T13:52:56.806Z,20.10
2022-10-15T13:55:30.198Z,20.10
2022-10-15T13:58:03.405Z,20.20
2022-10-15T14:00:35.499Z,20.20
2022-10-15T14:03:17.154Z,20.20
2022-10-15T14:05:47.725Z,20.30
2022-10-15T14:08:26.688Z,20.30
2022-10-15T14:10:59.949Z,20.30
2022-10-15T14:13:29.856Z,20.30
2022-10-15T14:16:14.282Z,20.30
2022-10-15T14:18:48.299Z,20.30
2022-10-15T14:21:21.085Z,20.30
2022-10-15T14:23:51.096Z,20.40
2022-10-15T14:26:26.319Z,20.40
2022-10-15T14:28:55.981Z,20.40
2022-10-15T14:31:34.683Z,20.40
2022-10-15T14:34:03.245Z,20.30
2022-10-15T14:36:33.589Z,20.30
2022-10-15T14:39:30.814Z,20.30
2022-10-15T14:42:03.197Z,20.30
2022-10-15T14:44:52.602Z,20.30
2022-10-15T14:47:24.565Z,20.30
2022-10-15T14:49:56.682Z,20.30
2022-10-15T14:52:25.491Z,20.30
2022-10-15T14:55:03.420Z,20.30
2022-10-15T14:57:38.199Z,20.30
2022-10-15T15:00:15.628Z,20.30
2022-10-15T15:02:44.635Z,20.30
2022-10-15T15:05:23.215Z,20.30
2022-10-15T15:07:52.811Z,20.30
2022-10-15T15:10:22.007Z,20.30
2022-10-15T15:12:55.496Z,20.30
2022-10-15T15:15:27.687Z,20.30
2022-10-15T15:17:56.778Z,20.30
2022-10-15T15:20:25.947Z,20.30
2022-10-15T15:22:56.220Z,20.20
2022-10-15T15:25:30.964Z,20.20
2022-10-15T15:28:01.456Z,20.20
2022-10-15T15:30:32.743Z,20.20
2022-10-15T15:33:02.133Z,20.20
2022-10-15T15:35:38.144Z,20.20
2022-10-15T15:38:08.649Z,20.20
2022-10-15T15:40:37.681Z,20.20
2022-10-15T15:43:07.518Z,20.20
2022-10-15T15:45:36.735Z,20.10
2022-10-15T15:48:05.860Z,20.10
2022-10-15T15:50:35.330Z,20.10
2022-10-15T15:53:04.439Z,20.10
2022-10-15T15:55:32.992Z,20.10
2022-10-15T15:58:01.452Z,20.10
2022-10-15T16:00:31.423Z,20.00
2022-10-15T16:03:00.232Z,20.00
2022-10-15T16:05:28.697Z,20.00
2022-10-15T16:07:57.045Z,20.00
2022-10-15T16:10:25.638Z,19.90
2022-10-15T16:12:55.922Z,19.90
2022-10-15T16:15:24.376Z,19.90
2022-10-15T16:17:54.281Z,19.90
2022-10-15T16:20:23.695Z,19.80
2022-10-15T16:22:52.913Z,19.80
2022-10-15T16:25:24.151Z,19.80
2022-10-15T16:27:56.712Z,19.80
2022-10-15T16:30:25.179Z,19.80
2022-10-15T16:32:56.163Z,19.70
2022-10-15T16:35:24.961Z,19.70
2022-10-15T16:37:56.024Z,19.70
2022-10-15T16:40:25.836Z,19.70
2022-10-15T16:42:54.593Z,19.70
2022-10-15T16:45:23.123Z,19.60
2022-10-15T16:47:51.740Z,19.60
2022-10-15T16:50:21.828Z,19.60
2022-10-15T16:52:50.474Z,19.60
2022-10-15T16:55:19.186Z,19.60
2022-10-15T16:57:47.729Z,19.60
2022-10-15T17:00:16.471Z,19.50
2022-10-15T17:02:47.707Z,19.60
2022-10-15T17:05:18.399Z,19.50
2022-10-15T17:07:50.677Z,19.50
2022-10-15T17:10:25.509Z,19.50
2022-10-15T17:12:54.574Z,19.50
2022-10-15T17:15:25.257Z,19.50
2022-10-15T17:17:53.857Z,19.40
2022-10-15T17:20:22.362Z,19.40
2022-10-15T17:22:52.712Z,19.40
2022-10-15T17:25:21.275Z,19.40
2022-10-15T17:27:52.505Z,19.40
2022-10-15T17:30:20.884Z,19.40
2022-10-15T17:32:50.836Z,19.40
2022-10-15T17:35:22.203Z,19.40
2022-10-15T17:37:52.451Z,19.40
2022-10-15T17:40:22.908Z,19.30
2022-10-15T17:42:51.524Z,19.30
2022-10-15T17:45:20.056Z,19.40
2022-10-15T17:47:53.094Z,19.30
2022-10-15T17:50:21.783Z,19.40
2022-10-15T17:52:50.122Z,19.30
2022-10-15T17:55:20.327Z,19.30
2022-10-15T17:57:48.712Z,19.30
2022-10-15T18:00:19.315Z,19.30
2022-10-15T18:02:50.231Z,19.30
2022-10-15T18:05:18.780Z,19.30
2022-10-15T18:07:47.153Z,19.30
2022-10-15T18:10:15.722Z,19.30
2022-10-15T18:12:45.854Z,19.20
2022-10-15T18:15:14.737Z,19.20
2022-10-15T18:17:43.218Z,19.20
2022-10-15T18:20:13.528Z,19.20
2022-10-15T18:22:43.148Z,19.20
2022-10-15T18:25:11.904Z,19.20
2022-10-15T18:27:40.270Z,19.20
2022-10-15T18:30:12.538Z,19.10
2022-10-15T18:32:40.945Z,19.20
2022-10-15T18:35:09.932Z,19.10
2022-10-15T18:37:38.446Z,19.10
2022-10-15T18:40:09.049Z,19.10
2022-10-15T18:42:37.463Z,19.10
2022-10-15T18:45:06.885Z,19.10
2022-10-15T18:47:37.249Z,19.10
2022-10-15T18:50:07.406Z,19.10
2022-10-15T18:52:39.776Z,19.10
2022-10-15T18:55:10.107Z,19.10
2022-10-15T18:57:43.853Z,19.00
2022-10-15T19:00:14.542Z,19.00
2022-10-15T19:02:44.372Z,19.10
2022-10-15T19:05:12.843Z,19.00
2022-10-15T19:07:41.155Z,19.00
2022-10-15T19:10:16.465Z,19.00
2022-10-15T19:12:48.192Z,19.00
2022-10-15T19:15:16.887Z,19.00
2022-10-15T19:17:46.811Z,19.00
2022-10-15T19:20:15.145Z,18.90
2022-10-15T19:22:43.523Z,18.90
2022-10-15T19:25:11.886Z,18.90
2022-10-15T19:27:41.462Z,18.90
2022-10-15T19:30:11.308Z,18.90
2022-10-15T19:32:39.720Z,18.90
2022-10-15T19:35:12.455Z,18.90
2022-10-15T19:37:43.396Z,18.80
2022-10-15T19:40:11.919Z,18.90
2022-10-15T19:42:40.365Z,18.80
2022-10-15T19:45:10.042Z,18.80
2022-10-15T19:47:38.874Z,18.80
2022-10-15T19:50:08.848Z,18.80
2022-10-15T19:52:38.684Z,18.80
2022-10-15T19:55:08.384Z,18.80
2022-10-15T19:57:36.819Z,18.80
2022-10-15T20:00:07.436Z,18.70
2022-10-15T20:02:40.974Z,18.70
2022-10-15T20:05:10.068Z,18.70
2022-10-15T20:07:39.887Z,18.70
2022-10-15T20:10:10.786Z,18.70
2022-10-15T20:12:39.499Z,18.60
2022-10-15T20:15:10.024Z,18.70
2022-10-15T20:17:38.794Z,18.70
2022-10-15T20:20:07.997Z,18.70
2022-10-15T20:22:36.404Z,18.70
2022-10-15T20:25:07.422Z,18.60
2022-10-15T20:27:36.491Z,18.60
2022-10-15T20:30:05.932Z,18.60
2022-10-15T20:32:36.058Z,18.60
2022-10-15T20:35:06.323Z,18.60
2022-10-15T20:37:34.927Z,18.50
2022-10-15T20:40:03.492Z,18.50
2022-10-15T20:42:37.520Z,18.50
2022-10-15T20:45:07.248Z,18.50
2022-10-15T20:47:37.476Z,18.50
2022-10-15T20:50:08.142Z,18.50
2022-10-15T20:52:36.673Z,18.40
2022-10-15T20:55:06.133Z,18.40
2022-10-15T20:57:36.616Z,18.40
2022-10-15T21:00:08.586Z,18.40
2022-10-15T21:02:36.999Z,18.40
2022-10-15T21:05:06.352Z,18.40
2022-10-15T21:07:34.851Z,18.30
2022-10-15T21:10:03.608Z,18.30
2022-10-15T21:12:31.960Z,18.30
2022-10-15T21:15:01.961Z,18.30
2022-10-15T21:17:30.346Z,18.30
2022-10-15T21:19:58.838Z,18.30
2022-10-15T21:22:27.231Z,18.30
2022-10-15T21:24:55.989Z,18.30
2022-10-15T21:27:24.672Z,18.30
2022-10-15T21:29:53.209Z,18.30
2022-10-15T21:32:23.278Z,18.30
2022-10-15T21:34:51.751Z,18.30
2022-10-15T21:37:20.281Z,18.30
2022-10-15T21:39:48.651Z,18.20
2022-10-15T21:42:17.293Z,18.20
2022-10-15T21:44:45.775Z,18.20
2022-10-15T21:47:15.352Z,18.20
2022-10-15T21:49:45.801Z,18.20
2022-10-15T21:52:14.403Z,18.20
2022-10-15T21:54:42.961Z,18.20
2022-10-15T21:57:11.463Z,18.20
2022-10-15T21:59:39.833Z,18.20
2022-10-15T22:02:08.326Z,18.20
2022-10-15T22:04:36.917Z,18.10
2022-10-15T22:07:09.191Z,18.10
2022-10-15T22:09:37.953Z,18.10
2022-10-15T22:12:07.285Z,18.10
2022-10-15T22:14:36.155Z,18.10
2022-10-15T22:17:04.606Z,18.10
2022-10-15T22:19:32.946Z,18.20
2022-10-15T22:22:01.580Z,18.10
2022-10-15T22:24:32.722Z,18.10
2022-10-15T22:27:01.040Z,18.10
2022-10-15T22:29:33.030Z,18.10
2022-10-15T22:32:03.550Z,18.10
2022-10-15T22:34:31.916Z,18.10
2022-10-15T22:37:00.323Z,18.10
2022-10-15T22:39:29.002Z,18.10
2022-10-15T22:41:58.774Z,18.10
2022-10-15T22:44:27.080Z,18.10
2022-10-15T22:46:55.451Z,18.10
2022-10-15T22:49:25.553Z,18.00
2022-10-15T22:51:53.906Z,18.10
2022-10-15T22:54:23.871Z,18.10
2022-10-15T22:56:52.764Z,18.00
2022-10-15T22:59:22.621Z,18.00
2022-10-15T23:01:51.241Z,18.00
2022-10-15T23:04:19.735Z,18.00
2022-10-15T23:06:48.645Z,18.00
2022-10-15T23:09:19.864Z,18.00
2022-10-15T23:11:48.276Z,18.00
2022-10-15T23:14:18.473Z,18.00
2022-10-15T23:16:49.488Z,17.90
2022-10-15T23:19:20.829Z,17.90
2022-10-15T23:21:51.511Z,17.90
2022-10-15T23:24:22.793Z,17.90
2022-10-15T23:26:51.968Z,17.90
2022-10-15T23:29:22.814Z,17.90
2022-10-15T23:31:54.346Z,17.90
2022-10-15T23:34:25.965Z,17.90
2022-10-15T23:36:54.885Z,17.90
2022-10-15T23:39:25.649Z,17.80
2022-10-15T23:41:54.368Z,17.80
2022-10-15T23:44:25.537Z,17.80
2022-10-15T23:46:56.184Z,17.80
2022-10-15T23:49:24.654Z,17.80
2022-10-15T23:51:53.045Z,17.80
2022-10-15T23:54:22.072Z,17.80
2022-10-15T23:56:50.663Z,17.80
2022-10-15T23:59:19.005Z,17.80
